Columbus, OH

10:08 AM EDT on August 30, 2015 (GMT -0400)
WX8Q Worthington Estates East | | Change Station
CLOSE
Current Station
Personal Weather Station
Location: Worthington, OH
Elevation: 922 ft
Nearby Weather Stations

Elev 922 ft 40.10 °N, 83.01 °W | Updated 55 seconds ago

Mostly Cloudy
Mostly Cloudy
70.5 °F
Feels Like 70.5 °F
N
1.7
Wind Variable Wind from SW
Gusts 3.4 mph

Today
High -- | Low -- °F
--% Chance of Precip.
Yesterday
High -- | Low -- °F
Precip. -- in
6:57 AM 8:07 PM
Full, 99% visible
Pressure 30.10 in
Visibility 9.0 miles
Clouds Scattered Clouds 12000 ft
Dew Point 69 °F
Humidity 95%
Rainfall 0.04 in
Snow Depth Not available.
UV 0.0 out of 12
Pollen 10.00 out of 12
Air Quality Not available.
Flu Activity Not available.
METAR KOSU 301353Z 17006KT 9SM SCT120 21/19 A3012 RMK AO2 SLP193 T02110194 $
Pressure 30.10 in
Visibility 9.0 miles
Clouds Scattered Clouds 12000 ft
Dew Point 69 °F
Humidity 95%
Rainfall 0.04 in
Snow Depth Not available.
UV 0.0 out of 12
Pollen 10.00 out of 12
Air Quality Not available.
Flu Activity Not available.
METAR KOSU 301353Z 17006KT 9SM SCT120 21/19 A3012 RMK AO2 SLP193 T02110194 $

10-Day Weather Forecast

×

Almanac

Astronomy

Aug. 30, 2015 Rise Set
Actual Time
Civil Twilight
Nautical Twilight
Astronomical Twilight
Moon
Length of Visible Light
Length of Day
Tomorrow will be .
, % of the Moon is Illuminated

Today's Extremes

State Highs State Lows

Community

WunderPhotos

Upload Photos

1,850,963 photos uploaded!

WunderBlogs® & News

Nearby

Air Quality

  Air Quality AQ Index Pollutant
Not available.

Snow Depth

Station Depth Elevation

Earthquake Activity

City Distance Mag. Time & Date
Minimum magnitude displayed is 2.5.

Coastal Water Temperatures

Place Temperature

Stations

Nearby Weather Stations

Station Location Temp. Windchill Dew Point Humidity Wind Precip. Elev Updated Type